• Join FlightAware (Why Join?)
  • Login
  • US Flag 
12:42AM EST


 

Airport Tracker/Info


-or-


 

Live Flight TrackerFlight Track Log ✈ AAL1459 ✈ 21-Apr-2013 ✈ KBOS - KORD

Flight Track Log - Related Links

Times and Time Zones

All times are in EDT time to prevent confusion due to time zone crossing. See the AAL1459 flight status page for this flight to view local times or setup timezone preferences in your user account.

Time Position Orientation Groundspeed Altitude Reporting Facility
EDT Latitude Longitude Course Direction KTS MPH feet Rate Location/Type
02:16PM 42.3667 -70.9667 300° West 171 197 1,000  Level KA90
02:17PM 42.3833 -70.8667 77° East 244 281 3,200 2,160 Climbing KA90
02:18PM 42.5373 -70.8020 340° North  Level FlightAware Approximate
02:19PM 42.6088 -70.8904 308° West  Level FlightAware Approximate
02:19PM 42.4361 -70.7692 54° Northeast 257 296 7,200  Level Boston Center
02:20PM 42.6629 -71.0042 300° West  Level FlightAware Approximate
02:20PM 42.5072 -70.7897 348° North 209 241 10,400  Level Boston Center
02:21PM 42.7122 -71.1226 300° West  Level FlightAware Approximate
02:21PM 42.5606 -70.8842 307° West 218 251 12,400  Level Boston Center
02:22PM 42.6097 -70.9675 309° West 282 325 14,900 2,760 Climbing Boston Center
02:23PM 42.6694 -71.0792 306° West 319 367 18,000 2,100 Climbing Boston Center
02:24PM 42.7225 -71.1683 309° West 335 386 19,200 1,800 Climbing Boston Center
02:25PM 42.7819 -71.2717 308° West 340 391 21,700 1,800 Climbing Boston Center
02:26PM 42.7978 -71.3958 280° West 326 375 22,900 1,260 Climbing Boston Center
02:27PM 42.8114 -71.5286 278° West 338 389 24,300 1,800 Climbing Boston Center
02:28PM 42.8211 -71.6872 275° West 355 409 26,900 1,860 Climbing Boston Center
02:29PM 42.8342 -71.8228 278° West 360 414 28,500 1,560 Climbing Boston Center
02:30PM 42.8475 -71.9586 278° West 366 421 30,100 1,620 Climbing Boston Center
02:31PM 42.8625 -72.1258 277° West 371 427 32,100 1,560 Climbing Boston Center
02:32PM 42.8817 -72.2786 280° West 371 427 33,600 1,260 Climbing Boston Center
02:33PM 42.8922 -72.4175 276° West 371 427 34,700 1,140 Climbing Boston Center
02:34PM 42.9047 -72.5619 277° West 377 434 35,900 1,080 Climbing Boston Center
02:35PM 42.9128 -72.7008 275° West 377 434 36,900 780 Climbing Boston Center
02:36PM 42.9208 -72.8144 276° West 377 434 37,500 540 Climbing Boston Center
02:37PM 42.9347 -72.9844 276° West 382 440 38,000 240 Climbing Boston Center
02:38PM 42.9489 -73.0897 280° West 390 449 38,000  Level Boston Center
02:39PM 42.9622 -73.2600 276° West 390 449 38,000  Level Boston Center
02:40PM 42.9694 -73.4161 274° West 390 449 38,000 -60 Level Boston Center
02:41PM 42.9825 -73.5611 277° West 390 449 37,900 -60 Descending Boston Center
02:42PM 42.9936 -73.7061 276° West 390 449 37,900  Level Boston Center
02:43PM 43.0064 -73.8511 277° West 390 449 38,000  Climbing Boston Center
02:44PM 43.0172 -73.9933 276° West 390 449 38,000  Level Boston Center
02:45PM 43.0297 -74.1414 277° West 390 449 38,000  Level Boston Center
02:46PM 43.0378 -74.2836 274° West 390 449 38,000  Level Boston Center
02:47PM 43.0500 -74.4317 276° West 390 449 38,000  Level Boston Center
02:48PM 43.0578 -74.5769 274° West 390 449 38,000  Level Boston Center
02:49PM 43.0675 -74.7222 275° West 385 443 38,000  Level Boston Center
02:50PM 43.0789 -74.8678 276° West 390 449 38,000  Level Boston Center
02:51PM 43.0883 -75.0131 275° West 390 449 38,000  Level Boston Center
02:52PM 43.0972 -75.1728 274° West 390 449 38,000  Level Boston Center
02:53PM 43.1058 -75.3211 275° West 390 449 38,000  Level Boston Center
02:54PM 43.1169 -75.4639 276° West 390 449 38,000  Level Boston Center
02:55PM 43.1253 -75.6094 275° West 390 449 38,000 -60 Level Boston Center
02:56PM 43.1358 -75.7550 276° West 390 449 37,900  Descending Boston Center
02:57PM 43.1442 -75.9006 275° West 390 449 38,000  Climbing Boston Center
02:58PM 43.1519 -76.0464 274° West 390 449 38,000  Level Boston Center
03:01PM 43.1608 -76.4872 272° West 377 434 38,000 -60 Level Cleveland Center
03:02PM 43.1600 -76.6353 270° West 383 441 37,900  Descending Cleveland Center
03:03PM 43.1586 -76.7806 269° West 388 447 38,000  Climbing Cleveland Center
03:04PM 43.1592 -76.9286 270° West 388 447 38,000  Level Cleveland Center
03:05PM 43.1572 -77.0739 269° West 388 447 38,000  Level Cleveland Center
03:06PM 43.1575 -77.2247 270° West 388 447 38,000  Level Cleveland Center
03:07PM 43.1556 -77.3731 269° West 388 447 38,000  Level Cleveland Center
03:08PM 43.1533 -77.5181 269° West 388 447 38,000  Level Cleveland Center
03:09PM 43.1528 -77.6661 270° West 388 447 38,000  Level Cleveland Center
03:10PM 43.1503 -77.8086 269° West 388 447 38,000  Level Cleveland Center
03:11PM 43.1472 -77.9539 268° West 388 447 38,000  Level Cleveland Center
03:12PM 43.1464 -78.0964 270° West 388 447 38,000  Level Cleveland Center
03:13PM 43.1450 -78.2414 269° West 388 447 38,000  Level Cleveland Center
03:14PM 43.1417 -78.3867 268° West 388 447 38,000  Level Cleveland Center
03:15PM 43.1381 -78.5319 268° West 388 447 38,000  Level Cleveland Center
03:16PM 43.1325 -78.6942 267° West 388 447 38,000  Level Cleveland Center
03:17PM 43.1308 -78.8422 269° West 388 447 38,000  Level Cleveland Center
03:18PM 43.1167 -78.9000 251° West 390 449 38,000  Level Toronto Center
03:19PM 43.1167 -79.0667 270° West 390 449 38,000  Level Toronto Center
03:20PM 43.1000 -79.2167 261° West 390 449 38,000  Level Toronto Center
03:21PM 43.1000 -79.3667 270° West 390 449 38,000  Level Toronto Center
03:22PM 43.1000 -79.5167 270° West 390 449 38,000  Level Toronto Center
03:23PM 43.0833 -79.6500 260° West 390 449 38,000  Level Toronto Center
03:24PM 43.0833 -79.8000 270° West 390 449 38,000  Level Toronto Center
03:25PM 43.0833 -79.9500 270° West 390 449 38,000  Level Toronto Center
03:26PM 43.0833 -80.0833 270° West 390 449 38,000  Level Toronto Center
03:27PM 43.0667 -80.2500 262° West 390 449 38,000  Level Toronto Center
03:28PM 43.0667 -80.3833 270° West 390 449 38,000  Level Toronto Center
03:29PM 43.0667 -80.5500 270° West 390 449 38,000  Level Toronto Center
03:30PM 43.0500 -80.7000 261° West 390 449 38,000  Level Toronto Center
03:31PM 43.0333 -80.8500 261° West 390 449 38,000  Level Toronto Center
03:32PM 43.0333 -81.0000 270° West 400 460 38,000  Level Toronto Center
03:34PM 43.0167 -81.3000 266° West 400 460 38,000  Level Toronto Center
03:35PM 43.0167 -81.4333 270° West 400 460 38,000  Level Toronto Center
03:36PM 43.0167 -81.6000 270° West 400 460 38,000  Level Toronto Center
03:37PM 43.0167 -81.7333 270° West 400 460 38,000  Level Toronto Center
03:38PM 43.0167 -81.8833 270° West 400 460 38,000  Level Toronto Center
03:39PM 43.0000 -82.0500 262° West 400 460 38,000  Level Toronto Center
03:40PM 43.0000 -82.2167 270° West 400 460 38,000  Level Toronto Center
03:41PM 43.0000 -82.3500 270° West 400 460 38,000  Level Toronto Center
03:42PM 43.0000 -82.5000 270° West 400 460 38,000  Level Toronto Center
03:43PM 42.9833 -82.6500 261° West 400 460 38,000  Level Toronto Center
03:43PM 43.0014 -82.7008 296° West 404 465 38,000  Level Cleveland Center
03:44PM 42.9964 -82.8542 267° West 404 465 38,000  Level Cleveland Center
03:45PM 42.9914 -83.0014 267° West 404 465 38,000 -360 Level Cleveland Center
03:46PM 42.9881 -83.1489 268° West 398 458 37,300 -900 Descending Cleveland Center
03:47PM 42.9828 -83.2936 267° West 393 452 36,300 -960 Descending Cleveland Center
03:48PM 42.9769 -83.4436 267° West 398 458 35,400 -960 Descending Cleveland Center
03:49PM 42.9711 -83.5911 267° West 398 458 34,400 -1,020 Descending Cleveland Center
03:50PM 42.9653 -83.7356 267° West 392 451 33,400 -960 Descending Cleveland Center
03:51PM 42.9528 -83.8794 263° West 387 445 32,500 -720 Descending Cleveland Center
03:52PM 42.9381 -84.0292 262° West 387 445 32,000 -300 Descending Cleveland Center
03:53PM 42.9233 -84.1758 262° West 387 445 32,000  Level Cleveland Center
03:55PM 42.9039 -84.3867 263° West 405 466 32,000  Level Chicago Center
03:56PM 42.8892 -84.5372 262° West 403 464 32,000  Level Chicago Center
03:57PM 42.8733 -84.6903 262° West 407 468 32,000  Level Chicago Center
03:58PM 42.8578 -84.8431 262° West 408 470 32,000  Level Chicago Center
03:59PM 42.8411 -84.9950 262° West 406 467 32,000  Level Chicago Center
04:00PM 42.8214 -85.1781 262° West 405 466 32,000 -420 Level Chicago Center
04:01PM 42.8042 -85.3300 261° West 407 468 31,200 -900 Descending Chicago Center
04:02PM 42.7878 -85.4836 262° West 408 470 30,200 -960 Descending Chicago Center
04:03PM 42.7611 -85.6364 257° West 412 474 29,300 -1,020 Descending Chicago Center
04:04PM 42.7339 -85.7906 257° West 415 478 28,100 -1,800 Descending Chicago Center
04:05PM 42.7072 -85.9375 256° West 404 465 25,700 -2,280 Descending Chicago Center
04:06PM 42.6817 -86.0789 256° West 390 449 23,400 -2,280 Descending Chicago Center
04:07PM 42.6564 -86.2164 256° West 378 435 21,000 -1,680 Descending Chicago Center
04:08PM 42.6253 -86.3775 255° West 366 421 20,000 -1,440 Descending Chicago Center
04:09PM 42.6011 -86.5081 256° West 357 411 18,000 -1,680 Descending Chicago Center
04:10PM 42.5761 -86.6394 256° West 359 413 16,500 -1,800 Descending Chicago Center
04:11PM 42.5494 -86.7708 255° West 361 415 14,300 -2,100 Descending Chicago Center
04:12PM 42.5153 -86.8922 249° West 351 404 12,200 -2,040 Descending Chicago Center
04:13PM 42.4839 -87.0072 250° West 334 384 10,200 -1,080 Descending Chicago Center
04:14PM 42.4472 -87.1381 249° West 313 360 10,000 -300 Descending Chicago Center
04:15PM 42.4206 -87.2381 250° West 280 322 9,700 -780 Descending Chicago Center
04:16PM 42.3967 -87.3267 250° West 255 293 8,400 -1,260 Descending Chicago Center
04:17PM 42.3697 -87.4228 249° West 248 285 7,100 -720 Descending Chicago Center
04:18PM 42.3428 -87.5061 246° West 248 285 7,000 -60 Descending Chicago Center
04:19PM 42.2881 -87.5706 221° Southwest 252 290 7,000  Level Chicago Center
04:20PM 42.2369 -87.6319 222° Southwest 248 285 7,000 -600 Level Chicago Center
04:21PM 42.1839 -87.6889 219° Southwest 246 283 5,800 -1,260 Descending Chicago Center
04:22PM 42.1381 -87.7406 220° Southwest 218 251 4,500 -1,320 Descending Chicago Center